createdAt,value
2022-08-14T00:01:55.250Z,1.92
2022-08-14T00:04:35.863Z,1.80
2022-08-14T00:07:10.944Z,1.58
2022-08-14T00:09:39.947Z,1.50
2022-08-14T00:12:33.828Z,1.23
2022-08-14T00:15:21.784Z,1.40
2022-08-14T00:17:53.390Z,1.65
2022-08-14T00:20:30.397Z,1.30
2022-08-14T00:23:11.920Z,1.40
2022-08-14T00:25:58.746Z,1.25
2022-08-14T00:28:32.922Z,1.40
2022-08-14T00:31:03.015Z,1.42
2022-08-14T00:33:52.496Z,1.27
2022-08-14T00:36:37.054Z,1.33
2022-08-14T00:39:06.430Z,1.50
2022-08-14T00:41:33.723Z,1.42
2022-08-14T00:44:00.511Z,1.17
2022-08-14T00:46:32.301Z,1.50
2022-08-14T00:48:59.736Z,1.38
2022-08-14T00:51:38.050Z,1.42
2022-08-14T00:54:11.247Z,1.60
2022-08-14T00:56:50.096Z,1.75
2022-08-14T00:59:16.951Z,1.33
2022-08-14T01:01:45.185Z,1.40
2022-08-14T01:04:51.418Z,1.40
2022-08-14T01:07:05.002Z,1.63
2022-08-14T01:09:36.571Z,1.73
2022-08-14T01:12:05.197Z,1.60
2022-08-14T01:14:31.988Z,1.30
2022-08-14T01:16:59.885Z,1.38
2022-08-14T01:19:46.718Z,1.58
2022-08-14T01:22:18.471Z,1.52
2022-08-14T01:24:47.208Z,1.70
2022-08-14T01:27:24.358Z,1.50
2022-08-14T01:30:03.172Z,1.40
2022-08-14T01:32:35.653Z,1.60
2022-08-14T01:35:19.830Z,1.60
2022-08-14T01:37:58.042Z,1.58
2022-08-14T01:40:37.071Z,1.63
2022-08-14T01:43:14.548Z,1.50
2022-08-14T01:45:42.817Z,1.48
2022-08-14T01:48:16.200Z,1.60
2022-08-14T01:50:47.759Z,1.20
2022-08-14T01:53:17.733Z,1.50
2022-08-14T01:55:44.618Z,1.45
2022-08-14T01:58:20.079Z,1.60
2022-08-14T02:00:54.411Z,1.35
2022-08-14T02:03:23.757Z,1.40
2022-08-14T02:05:50.686Z,1.30
2022-08-14T02:08:22.556Z,1.13
2022-08-14T02:11:17.184Z,1.20
2022-08-14T02:16:21.886Z,1.40
2022-08-14T02:18:49.592Z,1.40
2022-08-14T02:21:19.465Z,1.38
2022-08-14T02:23:53.598Z,1.40
2022-08-14T02:26:29.565Z,1.48
2022-08-14T02:29:00.395Z,1.50
2022-08-14T02:31:41.860Z,1.30
2022-08-14T02:34:22.285Z,1.35
2022-08-14T02:37:03.602Z,1.42
2022-08-14T02:39:36.080Z,1.30
2022-08-14T02:42:04.962Z,1.40
2022-08-14T02:44:31.765Z,1.17
2022-08-14T02:47:14.913Z,1.23
2022-08-14T02:49:45.872Z,1.50
2022-08-14T02:52:56.304Z,1.23
2022-08-14T02:55:06.803Z,1.50
2022-08-14T02:57:39.309Z,1.73
2022-08-14T03:00:09.913Z,1.52
2022-08-14T03:02:56.573Z,1.48
2022-08-14T03:05:24.230Z,1.60
2022-08-14T03:07:51.825Z,1.50
2022-08-14T03:10:28.116Z,1.40
2022-08-14T03:12:59.240Z,1.30
2022-08-14T03:15:27.794Z,1.67
2022-08-14T03:17:56.356Z,1.50
2022-08-14T03:20:27.782Z,1.80
2022-08-14T03:22:57.090Z,1.70
2022-08-14T03:25:23.968Z,1.52
2022-08-14T03:27:58.815Z,1.60
2022-08-14T03:30:38.970Z,1.50
2022-08-14T03:33:10.367Z,1.50
2022-08-14T03:36:00.319Z,1.35
2022-08-14T03:39:12.969Z,1.70
2022-08-14T03:41:16.906Z,1.45
2022-08-14T03:43:45.455Z,1.70
2022-08-14T03:46:46.635Z,1.80
2022-08-14T03:49:05.093Z,1.40
2022-08-14T03:51:33.984Z,1.73
2022-08-14T03:54:03.760Z,1.58
2022-08-14T03:56:30.794Z,1.75
2022-08-14T03:59:03.127Z,1.55
2022-08-14T04:01:39.054Z,1.67
2022-08-14T04:04:09.141Z,1.80
2022-08-14T04:06:47.554Z,1.70
2022-08-14T04:09:16.897Z,1.60
2022-08-14T04:11:44.498Z,1.80
2022-08-14T04:14:11.294Z,1.73
2022-08-14T04:16:48.061Z,1.60
2022-08-14T04:19:19.930Z,1.70
2022-08-14T04:22:02.302Z,1.80
2022-08-14T04:24:38.436Z,1.85
2022-08-14T04:27:11.560Z,1.90
2022-08-14T04:29:45.055Z,1.50
2022-08-14T04:33:01.232Z,1.55
2022-08-14T04:35:07.320Z,1.30
2022-08-14T04:37:55.990Z,1.85
2022-08-14T04:40:42.191Z,1.52
2022-08-14T04:43:39.302Z,1.70
2022-08-14T04:46:56.426Z,1.80
2022-08-14T04:49:00.077Z,1.90
2022-08-14T04:51:28.175Z,2.00
2022-08-14T04:53:57.218Z,1.60
2022-08-14T04:56:30.945Z,1.60
2022-08-14T04:59:10.372Z,1.90
2022-08-14T05:01:48.704Z,1.90
2022-08-14T05:04:20.628Z,1.73
2022-08-14T05:06:54.044Z,1.75
2022-08-14T05:09:22.085Z,1.80
2022-08-14T05:11:51.263Z,2.22
2022-08-14T05:14:45.339Z,2.25
2022-08-14T05:17:06.942Z,1.85
2022-08-14T05:19:45.053Z,1.60
2022-08-14T05:22:23.396Z,1.85
2022-08-14T05:24:53.987Z,1.80
2022-08-14T05:27:22.589Z,1.73
2022-08-14T05:29:56.679Z,2.25
2022-08-14T05:32:27.264Z,1.52
2022-08-14T05:34:59.516Z,1.88
2022-08-14T05:37:28.237Z,2.13
2022-08-14T05:39:55.440Z,2.00
2022-08-14T05:42:26.954Z,2.03
2022-08-14T05:44:56.168Z,2.15
2022-08-14T05:47:23.974Z,2.05
2022-08-14T05:49:51.416Z,2.17
2022-08-14T05:52:18.942Z,2.22
2022-08-14T05:55:11.160Z,2.08
2022-08-14T05:57:52.836Z,2.50
2022-08-14T06:00:24.565Z,2.15
2022-08-14T06:02:56.981Z,1.90
2022-08-14T06:05:24.166Z,2.08
2022-08-14T06:07:57.383Z,2.40
2022-08-14T06:10:24.812Z,2.42
2022-08-14T06:12:56.769Z,2.33
2022-08-14T06:15:29.702Z,2.30
2022-08-14T06:20:28.169Z,2.20
2022-08-14T06:22:55.294Z,2.00
2022-08-14T06:25:25.031Z,2.33
2022-08-14T06:27:53.135Z,2.00
2022-08-14T06:30:30.492Z,2.30
2022-08-14T06:33:13.532Z,1.67
2022-08-14T06:35:42.862Z,2.17
2022-08-14T06:38:17.309Z,1.90
2022-08-14T06:40:45.929Z,1.98
2022-08-14T06:43:15.548Z,1.70
2022-08-14T06:45:48.309Z,2.10
2022-08-14T06:48:23.698Z,2.88
2022-08-14T06:50:52.670Z,2.15
2022-08-14T06:53:19.914Z,2.58
2022-08-14T06:55:57.926Z,1.83
2022-08-14T06:58:29.486Z,1.70
2022-08-14T07:01:23.059Z,1.80
2022-08-14T07:04:22.877Z,1.60
2022-08-14T07:06:50.524Z,1.67
2022-08-14T07:09:22.729Z,1.60
2022-08-14T07:11:51.736Z,1.40
2022-08-14T07:14:18.654Z,1.45
2022-08-14T07:16:45.557Z,1.80
2022-08-14T07:19:12.351Z,1.30
2022-08-14T07:21:39.717Z,0.93
2022-08-14T07:24:09.740Z,1.27
2022-08-14T07:26:53.570Z,1.40
2022-08-14T07:29:26.094Z,1.27
2022-08-14T07:31:54.008Z,1.13
2022-08-14T07:34:36.102Z,1.40
2022-08-14T07:37:04.577Z,1.20
2022-08-14T07:39:31.451Z,1.13
2022-08-14T07:42:01.904Z,1.10
2022-08-14T07:44:35.604Z,1.08
2022-08-14T07:47:12.978Z,1.20
2022-08-14T07:49:41.553Z,1.20
2022-08-14T07:52:10.558Z,1.60
2022-08-14T07:54:41.589Z,1.23
2022-08-14T07:57:12.604Z,1.15
2022-08-14T07:59:49.522Z,1.30
2022-08-14T08:02:19.558Z,1.20
2022-08-14T08:04:54.016Z,1.38
2022-08-14T08:07:22.573Z,1.38
2022-08-14T08:09:53.782Z,1.23
2022-08-14T08:12:26.247Z,1.00
2022-08-14T08:15:02.873Z,1.10
2022-08-14T08:17:38.804Z,1.20
2022-08-14T08:20:11.440Z,1.20
2022-08-14T08:22:40.838Z,0.88
2022-08-14T08:25:13.654Z,1.10
2022-08-14T08:27:44.621Z,1.20
2022-08-14T08:30:12.549Z,1.40
2022-08-14T08:32:43.822Z,1.25
2022-08-14T08:35:18.447Z,1.15
2022-08-14T08:37:45.318Z,1.50
2022-08-14T08:40:31.004Z,1.20
2022-08-14T08:42:59.186Z,1.05
2022-08-14T08:45:27.846Z,1.33
2022-08-14T08:47:55.380Z,1.13
2022-08-14T08:53:04.017Z,1.20
2022-08-14T08:55:42.467Z,1.10
2022-08-14T08:58:16.422Z,1.40
2022-08-14T09:00:54.154Z,1.20
2022-08-14T09:03:27.427Z,1.30
2022-08-14T09:06:53.560Z,1.08
2022-08-14T09:08:52.489Z,1.27
2022-08-14T09:11:21.211Z,1.10
2022-08-14T09:13:53.793Z,1.20
2022-08-14T09:16:25.796Z,1.27
2022-08-14T09:18:54.616Z,1.27
2022-08-14T09:21:24.431Z,0.90
2022-08-14T09:24:28.183Z,1.27
2022-08-14T09:26:49.522Z,0.85
2022-08-14T09:29:22.724Z,1.30
2022-08-14T09:31:57.050Z,1.40
2022-08-14T09:34:58.383Z,1.30
2022-08-14T09:37:45.737Z,1.10
2022-08-14T09:40:31.745Z,1.42
2022-08-14T09:43:33.163Z,1.10
2022-08-14T09:46:01.087Z,1.08
2022-08-14T09:48:30.519Z,1.30
2022-08-14T09:54:12.716Z,1.40
2022-08-14T09:56:30.815Z,1.10
2022-08-14T10:01:36.582Z,1.20
2022-08-14T10:04:32.983Z,1.27
2022-08-14T10:07:03.681Z,1.10
2022-08-14T10:09:34.710Z,1.23
2022-08-14T10:12:04.570Z,1.20
2022-08-14T10:14:36.585Z,1.40
2022-08-14T10:17:06.232Z,1.40
2022-08-14T10:19:35.961Z,1.20
2022-08-14T10:23:12.296Z,1.40
2022-08-14T10:24:56.601Z,1.13
2022-08-14T10:27:26.513Z,1.20
2022-08-14T10:29:58.356Z,1.27
2022-08-14T10:32:28.310Z,1.55
2022-08-14T10:35:10.910Z,1.30
2022-08-14T10:37:52.364Z,1.40
2022-08-14T10:40:38.350Z,1.70
2022-08-14T10:43:22.967Z,1.63
2022-08-14T10:46:03.893Z,1.40
2022-08-14T10:48:57.388Z,1.27
2022-08-14T10:51:29.932Z,1.20
2022-08-14T10:53:58.459Z,1.02
2022-08-14T10:56:34.399Z,1.20
2022-08-14T10:59:06.102Z,1.20
2022-08-14T11:01:41.954Z,1.10
2022-08-14T11:04:26.057Z,1.30
2022-08-14T11:06:56.784Z,0.98
2022-08-14T11:09:26.497Z,1.35
2022-08-14T11:12:34.315Z,1.30
2022-08-14T11:15:02.164Z,1.25
2022-08-14T11:17:32.740Z,1.27
2022-08-14T11:20:01.682Z,1.10
2022-08-14T11:22:55.624Z,1.13
2022-08-14T11:25:19.458Z,1.10
2022-08-14T11:27:47.182Z,1.15
2022-08-14T11:30:49.061Z,1.15
2022-08-14T11:33:07.647Z,1.02
2022-08-14T11:35:47.482Z,1.13
2022-08-14T11:38:16.981Z,1.73
2022-08-14T11:40:46.661Z,1.05
2022-08-14T11:43:16.309Z,1.10
2022-08-14T11:45:48.605Z,1.15
2022-08-14T11:49:02.854Z,1.20
2022-08-14T11:51:18.659Z,1.10
2022-08-14T11:54:01.588Z,1.27
2022-08-14T11:56:39.782Z,1.40
2022-08-14T11:59:10.181Z,1.00
2022-08-14T12:01:41.208Z,0.80
2022-08-14T12:04:31.882Z,1.00
2022-08-14T12:07:01.488Z,1.00
2022-08-14T12:09:33.374Z,0.90
2022-08-14T12:12:35.803Z,1.20
2022-08-14T12:15:05.404Z,1.20
2022-08-14T12:17:47.649Z,0.98
2022-08-14T12:20:31.900Z,1.10
2022-08-14T12:23:01.299Z,1.00
2022-08-14T12:25:28.948Z,1.10
2022-08-14T12:27:59.218Z,1.00
2022-08-14T12:30:43.305Z,1.10
2022-08-14T12:33:33.421Z,1.13
2022-08-14T12:36:08.044Z,1.15
2022-08-14T12:38:43.637Z,1.63
2022-08-14T12:41:21.231Z,1.00
2022-08-14T12:44:00.045Z,0.95
2022-08-14T12:46:37.555Z,0.98
2022-08-14T12:49:15.956Z,0.93
2022-08-14T12:51:44.753Z,1.05
2022-08-14T12:54:28.140Z,0.90
2022-08-14T12:57:19.468Z,0.80
2022-08-14T12:59:49.473Z,1.02
2022-08-14T13:02:26.268Z,0.88
2022-08-14T13:04:56.556Z,0.82
2022-08-14T13:07:27.282Z,0.90
2022-08-14T13:09:59.860Z,0.77
2022-08-14T13:12:32.064Z,1.10
2022-08-14T13:15:08.754Z,0.80
2022-08-14T13:17:51.065Z,0.60
2022-08-14T13:20:25.061Z,0.80
2022-08-14T13:22:55.006Z,0.70
2022-08-14T13:25:25.900Z,0.80
2022-08-14T13:27:58.973Z,1.00
2022-08-14T13:32:58.105Z,1.08
2022-08-14T13:35:26.022Z,0.52
2022-08-14T13:37:54.096Z,1.00
2022-08-14T13:40:26.304Z,0.70
2022-08-14T13:42:56.849Z,0.80
2022-08-14T13:45:33.944Z,0.60
2022-08-14T13:48:18.434Z,0.60
2022-08-14T13:51:03.062Z,0.70
2022-08-14T13:53:33.767Z,0.80
2022-08-14T13:56:01.522Z,0.50
2022-08-14T13:58:34.601Z,0.70
2022-08-14T14:01:04.381Z,0.80
2022-08-14T14:03:35.094Z,0.70
2022-08-14T14:06:03.537Z,0.75
2022-08-14T14:08:45.947Z,0.60
2022-08-14T14:11:16.757Z,0.90
2022-08-14T14:13:48.577Z,0.80
2022-08-14T14:16:22.144Z,0.90
2022-08-14T14:19:06.900Z,0.80
2022-08-14T14:21:37.979Z,0.75
2022-08-14T14:24:07.719Z,0.93
2022-08-14T14:26:36.069Z,1.10
2022-08-14T14:29:06.277Z,1.02
2022-08-14T14:31:38.864Z,1.08
2022-08-14T14:34:28.935Z,1.05
2022-08-14T14:36:56.835Z,1.17
2022-08-14T14:39:27.437Z,0.90
2022-08-14T14:42:06.221Z,1.00
2022-08-14T14:44:35.901Z,1.08
2022-08-14T14:47:03.007Z,0.80
2022-08-14T14:49:51.239Z,0.82
2022-08-14T14:52:27.857Z,0.73
2022-08-14T14:54:58.402Z,1.10
2022-08-14T14:57:35.590Z,0.82
2022-08-14T15:00:19.279Z,1.10
2022-08-14T15:02:52.045Z,0.80
2022-08-14T15:05:21.114Z,0.93
2022-08-14T15:07:51.155Z,1.02
2022-08-14T15:10:27.462Z,0.85
2022-08-14T15:13:00.136Z,0.90
2022-08-14T15:15:32.550Z,1.10
2022-08-14T15:17:59.822Z,1.02
2022-08-14T15:20:30.838Z,1.08
2022-08-14T15:23:00.985Z,1.10
2022-08-14T15:25:38.589Z,1.08
2022-08-14T15:28:11.517Z,1.00
2022-08-14T15:30:41.952Z,0.95
2022-08-14T15:33:10.453Z,1.17
2022-08-14T15:35:44.809Z,1.13
2022-08-14T15:38:11.853Z,1.10
2022-08-14T15:40:44.362Z,1.08
2022-08-14T15:43:18.772Z,1.15
2022-08-14T15:45:46.098Z,1.00
2022-08-14T15:48:22.380Z,1.20
2022-08-14T15:50:51.614Z,1.20
2022-08-14T15:53:18.872Z,1.20
2022-08-14T15:55:47.054Z,1.33
2022-08-14T15:58:14.925Z,1.27
2022-08-14T16:01:00.264Z,1.00
2022-08-14T16:03:35.186Z,1.10
2022-08-14T16:06:06.183Z,1.27
2022-08-14T16:08:38.727Z,1.25
2022-08-14T16:11:08.519Z,1.05
2022-08-14T16:13:42.346Z,1.33
2022-08-14T16:19:19.126Z,1.40
2022-08-14T16:21:58.316Z,1.15
2022-08-14T16:24:59.551Z,1.15
2022-08-14T16:27:39.062Z,1.08
2022-08-14T16:30:20.586Z,1.13
2022-08-14T16:32:56.730Z,1.10
2022-08-14T16:35:43.304Z,1.10
2022-08-14T16:38:44.957Z,1.40
2022-08-14T16:41:23.153Z,1.63
2022-08-14T16:44:02.017Z,1.25
2022-08-14T16:46:37.259Z,1.80
2022-08-14T16:49:07.505Z,1.92
2022-08-14T16:51:38.326Z,1.88
2022-08-14T16:54:34.311Z,1.42
2022-08-14T16:57:12.520Z,1.15
2022-08-14T16:59:52.607Z,1.45
2022-08-14T17:02:39.042Z,1.17
2022-08-14T17:05:24.982Z,1.40
2022-08-14T17:08:07.327Z,1.77
2022-08-14T17:10:50.688Z,1.58
2022-08-14T17:13:47.390Z,1.30
2022-08-14T17:16:25.012Z,1.60
2022-08-14T17:19:00.236Z,1.58
2022-08-14T17:21:31.504Z,1.60
2022-08-14T17:24:57.755Z,1.50
2022-08-14T17:26:55.103Z,1.70
2022-08-14T17:29:31.295Z,1.58
2022-08-14T17:32:02.101Z,1.60
2022-08-14T17:34:49.185Z,1.30
2022-08-14T17:37:44.836Z,1.50
2022-08-14T17:40:19.652Z,1.38
2022-08-14T17:42:53.649Z,1.20
2022-08-14T17:45:41.043Z,1.60
2022-08-14T17:49:10.651Z,1.50
2022-08-14T17:51:14.508Z,1.30
2022-08-14T17:53:53.946Z,1.20
2022-08-14T17:56:30.935Z,0.95
2022-08-14T17:59:06.278Z,1.10
2022-08-14T18:01:46.029Z,1.30
2022-08-14T18:04:25.136Z,1.30
2022-08-14T18:07:09.918Z,1.10
2022-08-14T18:09:57.233Z,1.60
2022-08-14T18:12:36.537Z,1.42
2022-08-14T18:15:19.118Z,2.17
2022-08-14T18:17:53.291Z,1.20
2022-08-14T18:21:40.116Z,1.02
2022-08-14T18:23:13.615Z,1.40
2022-08-14T18:25:51.774Z,1.00
2022-08-14T18:28:46.573Z,1.02
2022-08-14T18:31:43.625Z,1.02
2022-08-14T18:34:32.283Z,1.40
2022-08-14T18:37:14.250Z,1.10
2022-08-14T18:40:03.387Z,1.27
2022-08-14T18:42:35.033Z,1.33
2022-08-14T18:45:02.237Z,1.52
2022-08-14T18:48:14.517Z,1.58
2022-08-14T18:50:31.023Z,1.50
2022-08-14T18:53:11.048Z,1.48
2022-08-14T18:55:53.047Z,1.50
2022-08-14T18:58:30.878Z,1.50
2022-08-14T19:01:01.907Z,1.60
2022-08-14T19:03:36.507Z,1.50
2022-08-14T19:06:09.639Z,1.27
2022-08-14T19:08:37.545Z,1.30
2022-08-14T19:11:07.888Z,1.48
2022-08-14T19:13:44.540Z,1.63
2022-08-14T19:16:16.964Z,1.30
2022-08-14T19:19:00.171Z,1.33
2022-08-14T19:21:44.897Z,1.33
2022-08-14T19:24:27.738Z,1.70
2022-08-14T19:27:16.562Z,1.50
2022-08-14T19:29:47.858Z,1.70
2022-08-14T19:32:39.605Z,1.48
2022-08-14T19:35:18.351Z,1.20
2022-08-14T19:37:52.815Z,1.40
2022-08-14T19:40:42.835Z,2.10
2022-08-14T19:43:22.541Z,1.50
2022-08-14T19:46:37.726Z,1.83
2022-08-14T19:48:59.940Z,1.50
2022-08-14T19:51:32.796Z,1.90
2022-08-14T19:54:13.333Z,1.98
2022-08-14T19:56:45.655Z,1.83
2022-08-14T19:59:19.198Z,1.70
2022-08-14T20:01:51.166Z,2.00
2022-08-14T20:04:46.839Z,1.73
2022-08-14T20:07:59.635Z,2.08
2022-08-14T20:11:03.590Z,1.85
2022-08-14T20:13:32.247Z,1.92
2022-08-14T20:16:06.893Z,2.35
2022-08-14T20:18:50.787Z,1.30
2022-08-14T20:21:18.586Z,1.73
2022-08-14T20:23:47.972Z,1.65
2022-08-14T20:26:31.381Z,1.38
2022-08-14T20:29:05.027Z,1.50
2022-08-14T20:31:37.539Z,2.03
2022-08-14T20:34:25.032Z,2.25
2022-08-14T20:37:22.171Z,2.33
2022-08-14T20:39:54.600Z,1.88
2022-08-14T20:42:49.425Z,1.90
2022-08-14T20:45:18.873Z,2.00
2022-08-14T20:47:55.303Z,1.90
2022-08-14T20:50:28.785Z,1.83
2022-08-14T20:52:57.947Z,2.00
2022-08-14T20:55:30.485Z,1.80
2022-08-14T20:58:02.554Z,1.83
2022-08-14T21:00:52.283Z,1.80
2022-08-14T21:03:56.844Z,2.10
2022-08-14T21:07:22.811Z,1.80
2022-08-14T21:10:03.111Z,2.15
2022-08-14T21:12:34.361Z,2.00
2022-08-14T21:15:01.107Z,1.90
2022-08-14T21:17:29.586Z,1.70
2022-08-14T21:19:56.842Z,2.03
2022-08-14T21:22:24.927Z,1.85
2022-08-14T21:25:02.302Z,1.75
2022-08-14T21:27:37.024Z,2.03
2022-08-14T21:30:08.480Z,2.00
2022-08-14T21:32:50.308Z,1.85
2022-08-14T21:35:24.745Z,1.80
2022-08-14T21:37:52.546Z,1.73
2022-08-14T21:40:42.544Z,1.55
2022-08-14T21:43:20.742Z,2.10
2022-08-14T21:45:58.781Z,1.67
2022-08-14T21:48:29.882Z,1.60
2022-08-14T21:51:53.673Z,1.73
2022-08-14T21:53:58.708Z,1.77
2022-08-14T21:56:38.720Z,1.90
2022-08-14T21:59:17.807Z,1.70
2022-08-14T22:02:01.582Z,1.60
2022-08-14T22:04:40.789Z,1.90
2022-08-14T22:07:12.567Z,1.73
2022-08-14T22:09:43.837Z,1.80
2022-08-14T22:12:11.550Z,2.10
2022-08-14T22:14:58.596Z,2.00
2022-08-14T22:17:26.404Z,1.50
2022-08-14T22:20:01.162Z,1.60
2022-08-14T22:22:29.927Z,1.80
2022-08-14T22:24:59.953Z,1.98
2022-08-14T22:27:32.667Z,1.50
2022-08-14T22:30:00.571Z,1.88
2022-08-14T22:32:35.106Z,1.98
2022-08-14T22:35:15.836Z,1.50
2022-08-14T22:37:44.970Z,1.67
2022-08-14T22:40:51.213Z,2.00
2022-08-14T22:43:08.444Z,1.60
2022-08-14T22:45:37.962Z,1.60
2022-08-14T22:48:11.202Z,2.10
2022-08-14T22:53:21.840Z,1.80
2022-08-14T22:55:52.150Z,1.60
2022-08-14T22:58:30.389Z,1.55
2022-08-14T23:01:01.262Z,1.90
2022-08-14T23:03:31.245Z,1.70
2022-08-14T23:06:02.187Z,2.00
2022-08-14T23:08:59.614Z,1.77
2022-08-14T23:11:16.056Z,1.73
2022-08-14T23:13:46.319Z,1.70
2022-08-14T23:16:19.629Z,1.52
2022-08-14T23:18:47.624Z,2.00
2022-08-14T23:21:24.303Z,2.08
2022-08-14T23:23:55.181Z,2.03
2022-08-14T23:26:49.407Z,1.73
2022-08-14T23:29:15.906Z,1.77
2022-08-14T23:31:45.232Z,1.75
2022-08-14T23:34:20.311Z,2.17
2022-08-14T23:36:53.943Z,2.90
2022-08-14T23:39:24.283Z,2.08
2022-08-14T23:41:53.687Z,2.20
2022-08-14T23:44:24.519Z,2.10
2022-08-14T23:46:58.798Z,2.10
2022-08-14T23:49:55.407Z,2.05
2022-08-14T23:52:55.741Z,2.10
2022-08-14T23:55:11.324Z,1.80
2022-08-14T23:57:43.931Z,2.03
